Terminal Aerodrome Forecast
Issued by NWS Cleveland, OH

Home | Current Version | Previous Version | Graphics & Text | Print | Product List | Glossary Off
Versions: 1 2 3 4 5 6 7 8 9 10 11 12 13 14 15

000
FTUS41 KCLE 282300
TAFCAK
TAF
KCAK 282339Z 2900/2924 VRB02KT P6SM SCT050 BKN200
     FM290900 00000KT 4SM BR SCT200
      TEMPO 2911/2913 2SM BR
     FM291400 25004KT P6SM FEW040 SCT200=

USA.gov is the U.S. government's official web portal to all federal, state and local government web resources and services.